Portada
METAR-TAF:

METAR-TAF

Aeropuertos :

Ottumwa Industrial Airport

Ottumwa, Iowa, Estados Unidos

latitud: 41-06-24N, longitud: 092-26-53W, altitud: 258 m

Observación

El informe se hizo hace 9 minutos, a las 11:02 UTC
Viento 3 kt del oeste
Temperatura 19°C
Humedad 94%
Presión 1016 hPa
Visibilidad: 2.8 km
Cielo despejado
neblina

METAR: KOTM 051102Z AUTO 28003KT 1 3/4SM BR CLR 19/18 A3001 RMK AO2 T01890183

Hora: 06:11 (11:11 UTC)

Pronóstico

El informe se hizo hace 5 horas y 51 minutos, a las 05:20 UTC
Pronóstico válido del 05 a las 06 UTC al 06 a las 06 UTC
Viento 3 kt con dirección variable
Visibilidad: 10 km
Escasas nubes a una altura de 25000 ft

TAF: KOTM 050520Z 0506/0606 VRB03KT P6SM FEW250

Observaciones y pronósticos meteorológicos de más de 4000 aeropuertos (mensajes METAR y TAF).

Los puntos amarillos y rojos representan las estaciones disponibles.

Ponga el ratón en el punto deseado para ver el nombre de la estación.

Haga clic para ver las observaciones y los pronósticos meteorológicos.

Para cambiar el mapa : haga clic en los botones verdes con una cruz de color negro para hacer un zoom, en el botón verde con un guión para alejar o en las flechas verdes para mapas adyacentes.


METAR-TAF: